Time;durP1;ratioP1;P1;durP2;ratioP2;P2;SDS_P1;SDS_P2;PMS_P1;PMS_P2;Temp;Humidity;BMP_temperature;BMP_pressure;BME280_temperature;BME280_humidity;BME280_pressure;Samples;Min_cycle;Max_cycle;Signal;HPM_P1;HPM_P2
2022/04/15 00:01:20;;;;;;;1.73;1.60;;;;;;;11.71;41.82;98825.97;4949629;29;20189;-66
2022/04/15 00:03:45;;;;;;;1.83;1.70;;;;;;;11.52;42.00;98829.84;4949209;28;20753;-65
2022/04/15 00:06:12;;;;;;;1.75;1.65;;;;;;;11.55;42.02;98824.47;4949661;29;20203;-65
2022/04/15 00:08:38;;;;;;;1.98;1.80;;;;;;;11.51;42.16;98823.84;4947095;29;20667;-65
2022/04/15 00:11:03;;;;;;;3.00;1.90;;;;;;;11.59;42.14;98831.13;4938357;29;20192;-66
2022/04/15 00:13:31;;;;;;;1.85;1.75;;;;;;;11.52;42.47;98833.28;4940279;29;20485;-66
2022/04/15 00:15:57;;;;;;;2.55;1.90;;;;;;;11.45;42.50;98833.78;4947826;29;20574;-66
2022/04/15 00:18:24;;;;;;;2.08;1.88;;;;;;;11.46;42.73;98832.84;4949431;29;20642;-66
2022/04/15 00:20:51;;;;;;;4.68;2.03;;;;;;;11.46;42.43;98825.91;4949381;29;20220;-66
2022/04/15 00:23:18;;;;;;;2.38;1.88;;;;;;;11.54;42.23;98820.19;4949486;29;20267;-66
2022/04/15 00:25:44;;;;;;;1.70;1.60;;;;;;;11.54;42.28;98822.78;4949265;29;20254;-66
2022/04/15 00:28:09;;;;;;;2.63;1.88;;;;;;;11.61;42.33;98818.94;4948949;29;20636;-64
2022/04/15 00:30:34;;;;;;;1.85;1.75;;;;;;;11.60;42.11;98828.44;4942230;29;20188;-64
2022/04/15 00:33:00;;;;;;;2.10;2.00;;;;;;;11.51;42.61;98823.00;4938838;29;20185;-64
2022/04/15 00:35:25;;;;;;;2.15;1.98;;;;;;;11.53;42.37;98821.13;4941877;29;20211;-66
2022/04/15 00:37:51;;;;;;;2.45;1.80;;;;;;;11.54;42.47;98815.88;4949092;29;20196;-66
2022/04/15 00:40:16;;;;;;;3.17;2.20;;;;;;;11.52;42.29;98809.13;4948714;29;20272;-66
2022/04/15 00:42:42;;;;;;;2.22;2.03;;;;;;;11.54;42.52;98815.03;4948947;29;20216;-66
2022/04/15 00:45:10;;;;;;;1.75;1.65;;;;;;;11.58;42.36;98806.13;4948946;29;20243;-65
2022/04/15 00:47:48;;;;;;;2.13;1.90;;;;;;;11.57;42.66;98813.09;4948734;29;20221;-65
2022/04/15 00:50:14;;;;;;;2.08;1.70;;;;;;;11.58;42.50;98819.97;4948842;29;20195;-66
2022/04/15 00:52:45;;;;;;;2.00;1.80;;;;;;;11.52;42.73;98814.31;4937308;29;20189;-65
2022/04/15 00:55:12;;;;;;;2.17;1.73;;;;;;;11.53;42.47;98810.78;4938935;29;20173;-66
2022/04/15 00:57:44;;;;;;;1.95;1.80;;;;;;;11.47;42.82;98812.03;4945924;29;20691;-66
2022/04/15 01:00:12;;;;;;;2.35;1.75;;;;;;;11.47;42.84;98811.19;4948956;29;20590;-66
2022/04/15 01:02:38;;;;;;;4.07;1.92;;;;;;;11.37;42.75;98808.38;4948306;28;20651;-65
2022/04/15 01:05:07;;;;;;;1.90;1.80;;;;;;;11.38;42.81;98806.63;4948130;28;20857;-64
2022/04/15 01:07:46;;;;;;;1.88;1.77;;;;;;;11.33;43.02;98812.06;4948652;29;21067;-64
2022/04/15 01:10:13;;;;;;;2.88;1.83;;;;;;;11.25;43.38;98811.75;4948667;29;20195;-66
2022/04/15 01:12:41;;;;;;;1.90;1.77;;;;;;;11.30;42.93;98811.44;4924072;29;20189;-65
2022/04/15 01:15:10;;;;;;;4.93;2.60;;;;;;;11.24;43.40;98806.66;4938198;29;20193;-66
2022/04/15 01:17:36;;;;;;;3.20;1.65;;;;;;;11.26;43.49;98803.03;4941377;29;20251;-66
2022/04/15 01:20:08;;;;;;;2.03;1.70;;;;;;;11.21;43.60;98799.09;4931203;29;20202;-66
2022/04/15 01:22:41;;;;;;;1.88;1.77;;;;;;;11.05;43.81;98803.59;4948709;29;20590;-66
2022/04/15 01:25:12;;;;;;;2.22;1.80;;;;;;;10.94;44.23;98803.47;4948628;29;20252;-66
2022/04/15 01:27:48;;;;;;;1.98;1.80;;;;;;;11.01;44.08;98802.13;4948524;29;20197;-66
2022/04/15 01:30:19;;;;;;;2.85;1.77;;;;;;;10.97;44.21;98800.69;4948514;29;20247;-65
2022/04/15 01:32:46;;;;;;;2.40;2.20;;;;;;;10.87;44.38;98799.59;4945940;29;20177;-64
2022/04/15 01:35:13;;;;;;;1.85;1.75;;;;;;;10.86;44.67;98792.78;4937179;29;20203;-65
2022/04/15 01:37:39;;;;;;;1.98;1.80;;;;;;;10.96;44.31;98799.84;4939432;29;20189;-65
2022/04/15 01:40:07;;;;;;;2.97;2.00;;;;;;;11.00;44.18;98795.31;4947026;29;20186;-65
2022/04/15 01:42:35;;;;;;;3.50;1.98;;;;;;;11.01;44.27;98794.38;4948476;29;20646;-65
2022/04/15 01:45:01;;;;;;;2.38;1.63;;;;;;;11.02;43.97;98793.44;4948487;29;20208;-66
2022/04/15 01:47:26;;;;;;;1.80;1.70;;;;;;;11.04;44.06;98791.59;4948409;29;20614;-66
2022/04/15 01:49:52;;;;;;;2.38;1.67;;;;;;;11.04;43.99;98791.59;4948343;29;20602;-64
2022/04/15 01:52:18;;;;;;;2.47;1.92;;;;;;;11.06;43.90;98794.91;4948415;29;20324;-66
2022/04/15 01:54:44;;;;;;;1.90;1.70;;;;;;;11.06;43.96;98789.72;4941073;29;20189;-66
2022/04/15 01:57:11;;;;;;;2.28;1.80;;;;;;;11.04;43.91;98789.00;4938284;29;20204;-66
2022/04/15 01:59:37;;;;;;;3.10;1.70;;;;;;;11.07;43.73;98786.19;4941057;29;20325;-66
2022/04/15 02:02:04;;;;;;;2.38;1.63;;;;;;;10.99;44.18;98788.47;4947951;29;20289;-66
2022/04/15 02:04:30;;;;;;;1.98;1.80;;;;;;;11.06;44.21;98789.72;4948213;28;20656;-64
2022/04/15 02:06:56;;;;;;;2.08;1.98;;;;;;;11.01;44.05;98782.25;4948196;29;20188;-65
2022/04/15 02:09:21;;;;;;;5.13;2.00;;;;;;;10.97;44.28;98783.38;4948264;29;20196;-66
2022/04/15 02:11:47;;;;;;;2.15;1.83;;;;;;;10.98;44.16;98774.69;4948191;29;20646;-66
2022/04/15 02:14:13;;;;;;;2.17;1.98;;;;;;;10.93;44.12;98768.16;4948139;29;20245;-66
2022/04/15 02:16:40;;;;;;;2.58;1.70;;;;;;;10.84;44.68;98777.34;4939890;28;20504;-66
2022/04/15 02:19:06;;;;;;;2.22;1.75;;;;;;;10.80;44.76;98780.22;4941678;29;20212;-65
2022/04/15 02:21:31;;;;;;;1.98;1.77;;;;;;;10.75;44.96;98774.50;4947204;29;20189;-66
2022/04/15 02:23:57;;;;;;;2.85;1.70;;;;;;;10.84;44.52;98768.72;4951313;29;20264;-66
2022/04/15 02:26:23;;;;;;;6.70;2.10;;;;;;;10.89;44.64;98771.84;4951578;29;20195;-65
2022/04/15 02:28:48;;;;;;;2.42;2.03;;;;;;;10.84;44.82;98763.53;4951400;29;20185;-65
2022/04/15 02:31:14;;;;;;;2.45;1.77;;;;;;;10.76;45.20;98770.97;4951304;29;20208;-66
2022/04/15 02:33:39;;;;;;;2.50;2.30;;;;;;;10.79;45.17;98771.59;4951350;29;20185;-64
2022/04/15 02:36:05;;;;;;;4.50;2.00;;;;;;;10.84;44.86;98771.31;4948120;29;20232;-64
2022/04/15 02:38:30;;;;;;;2.20;1.80;;;;;;;10.75;44.92;98756.38;4939868;29;20197;-64
2022/04/15 02:40:56;;;;;;;2.00;1.90;;;;;;;10.74;45.12;98773.66;4942071;29;20243;-65
2022/04/15 02:43:25;;;;;;;3.03;2.00;;;;;;;10.76;45.29;98781.34;4949697;29;20205;-65
2022/04/15 02:45:51;;;;;;;3.83;1.90;;;;;;;10.62;45.23;98761.50;4951086;29;20566;-65
2022/04/15 02:48:17;;;;;;;2.63;2.10;;;;;;;10.63;45.54;98757.97;4951106;29;20645;-65
2022/04/15 02:50:45;;;;;;;2.35;1.95;;;;;;;10.71;45.40;98758.34;4950990;29;20220;-64
2022/04/15 02:53:11;;;;;;;2.30;2.08;;;;;;;10.65;45.44;98757.88;4950726;29;20244;-64
2022/04/15 02:55:36;;;;;;;2.10;1.90;;;;;;;10.61;45.56;98756.41;4950822;29;20221;-64
2022/04/15 02:58:02;;;;;;;1.80;1.70;;;;;;;10.62;45.48;98751.16;4943355;29;20742;-66
2022/04/15 03:00:27;;;;;;;1.90;1.77;;;;;;;10.72;45.11;98748.78;4940917;29;20722;-66
2022/04/15 03:02:53;;;;;;;1.95;1.75;;;;;;;10.67;45.29;98761.19;4943197;28;20700;-65
2022/04/15 03:05:18;;;;;;;3.80;1.83;;;;;;;10.66;45.37;98760.38;4950752;29;20238;-64
2022/04/15 03:07:43;;;;;;;4.13;1.90;;;;;;;10.65;45.34;98752.72;4950773;29;20189;-66
2022/04/15 03:10:09;;;;;;;2.85;1.70;;;;;;;10.49;45.90;98763.19;4950663;29;20275;-64
2022/04/15 03:12:36;;;;;;;2.28;2.00;;;;;;;10.57;45.96;98760.94;4950563;29;20181;-64
2022/04/15 03:15:04;;;;;;;2.28;1.85;;;;;;;10.65;45.53;98758.72;4951105;29;20193;-65
2022/04/15 03:17:29;;;;;;;5.47;2.03;;;;;;;10.65;45.48;98763.91;4950651;29;20193;-64
2022/04/15 03:19:55;;;;;;;3.50;1.73;;;;;;;10.70;45.20;98755.84;4939436;29;20434;-64
2022/04/15 03:22:20;;;;;;;1.90;1.80;;;;;;;10.79;45.48;98757.84;4940533;29;20264;-66
2022/04/15 03:24:47;;;;;;;4.68;2.10;;;;;;;10.74;45.53;98758.13;4946183;29;20903;-66
2022/04/15 03:27:13;;;;;;;1.98;1.80;;;;;;;10.66;45.71;98765.56;4949362;28;20671;-66
2022/04/15 03:29:38;;;;;;;2.10;1.90;;;;;;;10.64;46.04;98766.56;4950210;29;20252;-66
2022/04/15 03:32:04;;;;;;;4.95;2.03;;;;;;;10.63;45.96;98762.34;4950417;29;20254;-66
2022/04/15 03:34:30;;;;;;;2.00;1.88;;;;;;;10.64;45.91;98777.78;4950398;29;20284;-64
2022/04/15 03:36:55;;;;;;;2.08;1.60;;;;;;;10.52;45.75;98763.00;4950201;29;20655;-64
2022/04/15 03:39:20;;;;;;;1.90;1.80;;;;;;;10.51;45.61;98776.03;4946467;29;20189;-64
2022/04/15 03:41:46;;;;;;;3.33;1.60;;;;;;;10.50;45.91;98779.56;4938909;29;20195;-66
2022/04/15 03:44:11;;;;;;;1.75;1.65;;;;;;;10.49;45.97;98777.88;4940991;29;20236;-64
2022/04/15 03:46:38;;;;;;;2.00;1.90;;;;;;;10.48;45.92;98782.25;4948844;29;20197;-64
2022/04/15 03:49:04;;;;;;;2.83;1.80;;;;;;;10.45;46.01;98799.72;4949830;29;20193;-64
2022/04/15 03:51:30;;;;;;;2.03;1.80;;;;;;;10.33;46.44;98784.94;4950217;29;20268;-64
2022/04/15 03:53:55;;;;;;;4.85;2.05;;;;;;;10.34;46.57;98773.66;4949692;29;20181;-64
2022/04/15 03:56:20;;;;;;;2.28;1.83;;;;;;;10.29;46.82;98773.97;4949687;29;20200;-64
2022/04/15 03:58:46;;;;;;;2.90;2.00;;;;;;;10.36;46.96;98782.16;4949285;29;20730;-66
2022/04/15 04:01:11;;;;;;;1.95;1.77;;;;;;;10.39;46.78;98787.97;4941399;29;20754;-66
2022/04/15 04:03:37;;;;;;;2.67;2.20;;;;;;;10.28;47.32;98786.97;4938978;28;20212;-65
2022/04/15 04:06:02;;;;;;;2.75;2.10;;;;;;;10.43;47.00;98780.84;4942479;29;20185;-66
2022/04/15 04:08:28;;;;;;;2.22;2.13;;;;;;;10.40;47.16;98784.44;4949608;29;20189;-64
2022/04/15 04:10:54;;;;;;;4.57;2.33;;;;;;;10.42;47.33;98787.78;4949697;29;20203;-66
2022/04/15 04:13:19;;;;;;;2.13;1.92;;;;;;;10.48;47.22;98781.41;4950054;29;20188;-64
2022/04/15 04:15:45;;;;;;;2.17;1.67;;;;;;;10.46;47.24;98778.09;4949602;29;20554;-66
2022/04/15 04:18:13;;;;;;;1.75;1.65;;;;;;;10.51;47.17;98776.03;4949476;29;20693;-66
2022/04/15 04:20:40;;;;;;;2.47;2.17;;;;;;;10.49;47.05;98775.28;4949363;29;20224;-64
2022/04/15 04:23:06;;;;;;;2.33;2.13;;;;;;;10.49;47.30;98783.06;4938133;29;20742;-66
2022/04/15 04:25:31;;;;;;;2.25;2.15;;;;;;;10.53;47.36;98775.03;4939438;29;20196;-66
2022/04/15 04:27:57;;;;;;;1.98;1.88;;;;;;;10.65;47.16;98770.81;4945198;29;20193;-66
2022/04/15 04:30:23;;;;;;;2.42;2.10;;;;;;;10.70;47.05;98777.38;4949101;29;20888;-66
2022/04/15 04:32:52;;;;;;;2.05;1.92;;;;;;;10.72;46.95;98785.03;4949150;29;20578;-66
2022/04/15 04:35:21;;;;;;;2.35;2.15;;;;;;;10.85;46.76;98791.13;4948944;29;20498;-66
2022/04/15 04:37:47;;;;;;;2.30;2.10;;;;;;;10.90;46.42;98787.28;4949145;28;20607;-64
2022/04/15 04:40:14;;;;;;;3.22;2.10;;;;;;;10.95;46.39;98782.66;4949189;29;20578;-64
2022/04/15 04:42:40;;;;;;;1.90;1.80;;;;;;;11.00;45.94;98784.94;4945111;29;20920;-64
2022/04/15 04:45:06;;;;;;;2.22;1.85;;;;;;;10.98;45.87;98792.00;4938397;29;20553;-64
2022/04/15 04:47:32;;;;;;;2.00;1.90;;;;;;;10.97;46.17;98785.97;4940248;29;20750;-65
2022/04/15 04:50:01;;;;;;;1.85;1.73;;;;;;;10.91;46.68;98790.72;4947881;29;20642;-65
2022/04/15 04:52:26;;;;;;;2.42;1.65;;;;;;;10.83;46.66;98782.59;4948839;29;20619;-64
2022/04/15 04:54:52;;;;;;;2.33;2.00;;;;;;;10.90;46.42;98783.88;4948855;29;20275;-64
2022/04/15 04:57:18;;;;;;;2.00;1.80;;;;;;;10.99;45.75;98783.28;4948637;29;20235;-65
2022/04/15 04:59:43;;;;;;;2.35;2.03;;;;;;;11.16;45.44;98783.03;4948839;29;20187;-64
2022/04/15 05:02:10;;;;;;;1.95;1.77;;;;;;;11.27;44.94;98786.56;4948718;29;20192;-65
2022/04/15 05:04:42;;;;;;;3.63;1.85;;;;;;;11.48;44.86;98789.50;4940219;28;20272;-65
2022/04/15 05:07:08;;;;;;;3.80;2.17;;;;;;;11.61;44.97;98799.00;4938306;29;20208;-66
2022/04/15 05:09:33;;;;;;;2.40;2.20;;;;;;;11.80;44.70;98802.00;4942708;29;20193;-66
2022/04/15 05:11:58;;;;;;;8.93;3.95;;;;;;;11.97;45.57;98798.31;4944379;29;20199;-65
2022/04/15 05:14:24;;;;;;;8.40;4.93;;;;;;;12.15;45.83;98805.66;4948690;29;20741;-65
2022/04/15 05:16:49;;;;;;;9.27;4.68;;;;;;;12.27;45.61;98810.03;4948616;29;20200;-66
2022/04/15 05:19:15;;;;;;;9.43;5.13;;;;;;;12.48;45.10;98807.69;4948569;29;20198;-66
2022/04/15 05:21:40;;;;;;;13.25;6.18;;;;;;;12.65;44.69;98809.94;4948552;29;20291;-66
2022/04/15 05:24:09;;;;;;;17.85;6.35;;;;;;;12.74;44.74;98819.66;4947935;29;20676;-66
2022/04/15 05:26:35;;;;;;;13.45;7.50;;;;;;;12.88;44.40;98814.31;4936995;29;20314;-66
2022/04/15 05:29:02;;;;;;;12.30;6.43;;;;;;;12.94;44.07;98812.13;4938783;29;20199;-66
2022/04/15 05:31:27;;;;;;;13.98;7.38;;;;;;;13.00;44.40;98811.69;4945612;29;20231;-67
2022/04/15 05:33:53;;;;;;;10.77;6.85;;;;;;;13.12;43.63;98820.41;4948747;29;20630;-65
2022/04/15 05:36:18;;;;;;;16.73;7.85;;;;;;;13.25;43.28;98805.56;4948493;29;20197;-65
2022/04/15 05:38:44;;;;;;;10.32;5.63;;;;;;;13.38;42.74;98806.31;4948213;29;20263;-65
2022/04/15 05:41:09;;;;;;;5.30;4.10;;;;;;;13.44;42.25;98798.91;4948331;29;20185;-65
2022/04/15 05:43:34;;;;;;;2.20;2.00;;;;;;;13.38;41.63;98806.31;4948207;29;20208;-65
2022/04/15 05:46:00;;;;;;;4.63;3.10;;;;;;;13.29;42.21;98809.63;4943732;29;20660;-65
2022/04/15 05:48:25;;;;;;;4.93;2.30;;;;;;;13.27;41.98;98809.72;4937418;29;20268;-67
2022/04/15 05:50:51;;;;;;;4.07;2.20;;;;;;;13.30;42.39;98793.88;4940826;28;20686;-66
2022/04/15 05:53:17;;;;;;;9.52;4.03;;;;;;;13.49;42.11;98806.38;4951290;29;20546;-65
2022/04/15 05:55:42;;;;;;;7.85;4.63;;;;;;;13.56;42.26;98804.97;4952048;29;20192;-66
2022/04/15 05:58:10;;;;;;;9.45;4.78;;;;;;;13.70;42.29;98796.97;4951969;29;20191;-66
2022/04/15 06:00:38;;;;;;;11.95;6.20;;;;;;;13.89;41.98;98802.44;4951840;29;20260;-66
2022/04/15 06:03:04;;;;;;;10.65;5.65;;;;;;;14.07;41.86;98806.25;4951648;28;20594;-66
2022/04/15 06:05:30;;;;;;;12.43;6.38;;;;;;;14.20;41.66;98807.00;4951462;29;20228;-65
2022/04/15 06:07:55;;;;;;;10.98;6.10;;;;;;;14.25;41.31;98797.91;4943058;29;20195;-67
2022/04/15 06:10:21;;;;;;;11.10;6.13;;;;;;;14.43;40.93;98804.28;4941444;29;20193;-65
2022/04/15 06:13:04;;;;;;;11.80;5.65;;;;;;;14.59;40.46;98796.09;4945462;29;20189;-67
2022/04/15 06:15:32;;;;;;;12.65;5.93;;;;;;;14.68;40.53;98795.34;4951737;29;20181;-65
2022/04/15 06:18:00;;;;;;;12.23;5.85;;;;;;;14.76;40.38;98798.22;4951844;29;20228;-65
2022/04/15 06:20:26;;;;;;;14.93;6.15;;;;;;;14.77;40.41;98799.84;4951790;29;20595;-67
2022/04/15 06:22:51;;;;;;;9.65;5.43;;;;;;;14.86;40.15;98791.28;4951441;29;20208;-65
2022/04/15 06:25:17;;;;;;;10.40;5.47;;;;;;;14.98;39.81;98796.38;4951575;29;20219;-65
2022/04/15 06:27:42;;;;;;;7.53;4.80;;;;;;;15.12;39.82;98796.09;4949218;29;20194;-66
2022/04/15 06:30:08;;;;;;;8.38;4.43;;;;;;;15.12;39.56;98782.22;4940172;29;20196;-66
2022/04/15 06:32:37;;;;;;;10.77;4.68;;;;;;;15.31;39.06;98796.25;4942176;29;20192;-65
2022/04/15 06:35:06;;;;;;;11.70;4.88;;;;;;;15.48;39.11;98794.91;4948974;29;20671;-67
2022/04/15 06:37:32;;;;;;;8.02;4.47;;;;;;;15.60;39.01;98793.88;4951507;29;20223;-66
2022/04/15 06:39:57;;;;;;;17.23;4.55;;;;;;;15.71;39.00;98783.41;4951154;29;20260;-66
2022/04/15 06:42:27;;;;;;;5.82;4.47;;;;;;;15.82;39.02;98791.16;4951133;29;20693;-66
2022/04/15 06:44:53;;;;;;;11.27;4.90;;;;;;;15.86;39.02;98798.59;4951447;29;20275;-67
2022/04/15 06:47:19;;;;;;;13.00;4.50;;;;;;;15.92;38.78;98792.06;4951589;29;20754;-66
2022/04/15 06:49:46;;;;;;;10.13;5.13;;;;;;;15.95;39.29;98799.59;4943648;29;20794;-66
2022/04/15 06:52:13;;;;;;;9.90;5.40;;;;;;;16.05;39.26;98805.72;4940589;29;20832;-66
2022/04/15 06:54:39;;;;;;;12.63;5.78;;;;;;;16.06;40.12;98794.31;4944290;29;20186;-65
2022/04/15 06:57:05;;;;;;;9.77;5.07;;;;;;;16.15;39.28;98801.38;4951047;29;20204;-65
2022/04/15 06:59:30;;;;;;;10.52;5.03;;;;;;;16.22;37.82;98802.50;4950898;29;20243;-65
2022/04/15 07:01:57;;;;;;;9.63;5.38;;;;;;;16.19;38.31;98798.38;4949691;28;20192;-66
2022/04/15 07:04:23;;;;;;;12.77;4.97;;;;;;;16.25;38.54;98807.44;4950553;28;20285;-65
2022/04/15 07:06:48;;;;;;;10.43;4.32;;;;;;;16.29;37.39;98803.63;4950636;29;20193;-67
2022/04/15 07:09:14;;;;;;;9.30;4.60;;;;;;;16.38;37.58;98808.91;4950684;29;20275;-66
2022/04/15 07:11:39;;;;;;;13.07;4.72;;;;;;;16.50;37.37;98812.28;4939429;29;20256;-66
2022/04/15 07:14:05;;;;;;;10.10;4.85;;;;;;;16.59;37.46;98806.25;4940937;29;20193;-66
2022/04/15 07:16:31;;;;;;;7.18;4.00;;;;;;;16.74;37.16;98815.38;4946233;29;20188;-66
2022/04/15 07:18:57;;;;;;;9.20;5.28;;;;;;;16.77;37.92;98807.25;4950566;29;20278;-67
2022/04/15 07:21:24;;;;;;;10.02;5.65;;;;;;;16.86;38.29;98809.09;4950381;29;20679;-67
2022/04/15 07:23:50;;;;;;;12.38;5.20;;;;;;;17.03;38.18;98805.81;4950328;29;20287;-67
2022/04/15 07:26:15;;;;;;;16.45;5.47;;;;;;;17.12;38.22;98800.59;4950361;29;20692;-66
2022/04/15 07:28:40;;;;;;;11.63;4.82;;;;;;;17.14;38.45;98800.47;4950341;29;20195;-66
2022/04/15 07:31:06;;;;;;;13.32;5.85;;;;;;;17.15;38.79;98802.13;4946754;29;20278;-65
2022/04/15 07:33:31;;;;;;;13.20;6.47;;;;;;;17.20;38.77;98803.34;4938938;29;20181;-67
2022/04/15 07:35:57;;;;;;;12.13;5.32;;;;;;;17.20;38.38;98800.72;4941139;29;20188;-66
2022/04/15 07:38:23;;;;;;;12.25;4.80;;;;;;;17.20;38.19;98802.53;4948808;29;20811;-66
2022/04/15 07:40:48;;;;;;;11.95;5.40;;;;;;;17.19;38.31;98799.09;4950268;29;20196;-65
2022/04/15 07:43:14;;;;;;;11.65;4.85;;;;;;;17.18;38.46;98796.59;4950259;29;20705;-65
2022/04/15 07:45:40;;;;;;;14.88;5.20;;;;;;;17.18;38.13;98791.38;4949993;29;20192;-65
2022/04/15 07:48:06;;;;;;;9.75;5.00;;;;;;;17.16;38.16;98786.28;4949911;29;20192;-65
2022/04/15 07:50:31;;;;;;;13.85;4.63;;;;;;;17.23;38.02;98797.00;4949846;29;20215;-65
2022/04/15 07:52:58;;;;;;;12.43;4.82;;;;;;;17.22;37.80;98787.53;4942538;29;20192;-65
2022/04/15 07:55:25;;;;;;;10.23;5.22;;;;;;;17.27;38.03;98786.16;4939370;29;20717;-65
2022/04/15 07:57:51;;;;;;;9.77;4.60;;;;;;;17.36;38.00;98792.31;4942915;29;20212;-65
2022/04/15 08:00:16;;;;;;;15.35;5.20;;;;;;;17.30;37.95;98787.66;4949567;29;20283;-65
2022/04/15 08:02:42;;;;;;;12.00;4.60;;;;;;;17.35;37.87;98788.91;4949509;28;20212;-65
2022/04/15 08:05:08;;;;;;;16.23;5.40;;;;;;;17.37;37.91;98784.34;4949546;29;20369;-65
2022/04/15 08:07:34;;;;;;;13.85;4.97;;;;;;;17.43;37.64;98790.88;4949860;29;20192;-65
2022/04/15 08:10:00;;;;;;;10.65;5.10;;;;;;;17.44;37.78;98789.91;4950023;29;20259;-67
2022/04/15 08:12:26;;;;;;;10.25;4.78;;;;;;;17.54;37.67;98786.31;4949313;29;20195;-65
2022/04/15 08:14:52;;;;;;;10.85;4.47;;;;;;;17.61;37.32;98786.59;4937906;28;20646;-65
2022/04/15 08:17:18;;;;;;;12.63;4.75;;;;;;;17.60;37.16;98777.09;4939559;29;20199;-66
2022/04/15 08:19:44;;;;;;;16.15;5.10;;;;;;;17.72;36.77;98779.38;4945853;29;20184;-65
2022/04/15 08:22:09;;;;;;;16.83;4.85;;;;;;;17.78;36.12;98775.41;4949431;29;20193;-65
2022/04/15 08:24:39;;;;;;;12.95;4.95;;;;;;;17.82;36.29;98774.13;4949082;29;20692;-65
2022/04/15 08:27:04;;;;;;;9.35;4.70;;;;;;;17.90;36.17;98774.28;4949480;29;20188;-65
2022/04/15 08:29:30;;;;;;;13.82;4.80;;;;;;;17.99;35.36;98781.25;4949219;29;20643;-65
2022/04/15 08:31:55;;;;;;;10.75;4.70;;;;;;;18.07;34.86;98773.53;4949179;29;20188;-65
2022/04/15 08:34:21;;;;;;;13.15;4.50;;;;;;;18.04;34.64;98742.38;4945169;29;20603;-65
2022/04/15 08:36:46;;;;;;;8.95;4.68;;;;;;;18.22;34.64;98757.22;4938464;29;20192;-65
2022/04/15 08:39:11;;;;;;;15.57;4.80;;;;;;;18.29;34.76;98763.50;4939726;29;20191;-66
2022/04/15 08:41:42;;;;;;;9.23;4.57;;;;;;;18.40;34.30;98759.91;4947848;29;20652;-66
2022/04/15 08:44:08;;;;;;;19.27;4.55;;;;;;;18.52;34.33;98748.25;4949116;29;20283;-67
2022/04/15 08:46:35;;;;;;;7.95;3.70;;;;;;;18.53;34.10;98749.94;4948965;29;20199;-66
2022/04/15 08:49:02;;;;;;;11.75;4.40;;;;;;;18.33;35.16;98748.38;4948949;29;20204;-66
2022/04/15 08:51:29;;;;;;;5.93;4.03;;;;;;;18.42;35.02;98739.63;4949181;29;20266;-65
2022/04/15 08:53:56;;;;;;;11.10;3.75;;;;;;;18.49;34.99;98735.47;4948895;29;20177;-66
2022/04/15 08:56:24;;;;;;;7.22;4.10;;;;;;;18.59;34.78;98738.84;4940195;29;20408;-66
2022/04/15 08:58:50;;;;;;;8.05;3.95;;;;;;;18.59;35.74;98733.63;4938618;29;20207;-66
2022/04/15 09:01:16;;;;;;;7.47;3.90;;;;;;;18.71;35.79;98737.69;4942317;29;20184;-66
2022/04/15 09:03:42;;;;;;;8.65;3.58;;;;;;;18.84;34.53;98744.19;4948171;28;20232;-66
2022/04/15 09:06:15;;;;;;;8.20;4.22;;;;;;;18.90;33.35;98735.75;4948680;29;20184;-66
2022/04/15 09:09:00;;;;;;;8.70;3.25;;;;;;;18.99;33.21;98731.38;4948734;29;20184;-66
2022/04/15 09:11:34;;;;;;;7.88;3.35;;;;;;;19.04;32.96;98729.97;4948762;29;20211;-66
2022/04/15 09:14:17;;;;;;;10.50;3.22;;;;;;;19.14;32.26;98727.28;4948679;29;20192;-67
2022/04/15 09:16:45;;;;;;;7.15;2.90;;;;;;;19.21;31.96;98730.97;4942819;29;20609;-66
2022/04/15 09:19:12;;;;;;;5.20;3.13;;;;;;;19.09;33.55;98716.41;4938019;29;20259;-66
2022/04/15 09:21:40;;;;;;;5.35;3.25;;;;;;;18.91;34.23;98713.81;4939856;29;20195;-67
2022/04/15 09:24:11;;;;;;;3.58;2.85;;;;;;;19.01;34.29;98705.84;4948722;28;20279;-66
2022/04/15 09:26:38;;;;;;;5.22;2.88;;;;;;;19.13;33.63;98704.66;4951502;29;20192;-67
2022/04/15 09:29:03;;;;;;;10.43;3.30;;;;;;;19.25;32.97;98708.72;4952596;29;20220;-66
2022/04/15 09:31:29;;;;;;;9.07;3.60;;;;;;;19.37;32.15;98694.38;4952499;29;20219;-66
2022/04/15 09:33:57;;;;;;;6.43;3.10;;;;;;;19.48;32.04;98699.38;4952608;29;20192;-67
2022/04/15 09:36:30;;;;;;;7.55;3.35;;;;;;;19.58;32.34;98697.50;4952306;29;20697;-66
2022/04/15 09:39:20;;;;;;;5.72;3.08;;;;;;;19.54;33.70;98688.25;4941719;29;20802;-67
2022/04/15 09:41:51;;;;;;;5.65;3.38;;;;;;;19.37;34.16;98689.13;4941932;29;20749;-67
2022/04/15 09:44:16;;;;;;;8.02;3.50;;;;;;;19.50;33.89;98682.50;4931772;29;20200;-66
2022/04/15 09:46:44;;;;;;;4.57;3.50;;;;;;;19.58;33.66;98679.13;4952206;29;20243;-67
2022/04/15 09:49:11;;;;;;;4.85;3.03;;;;;;;19.78;32.99;98689.25;4951911;29;20620;-66
2022/04/15 09:51:45;;;;;;;7.13;2.90;;;;;;;19.83;32.89;98684.34;4952378;29;20218;-66
2022/04/15 09:54:24;;;;;;;4.82;2.97;;;;;;;19.90;33.07;98681.91;4951804;29;20635;-66
2022/04/15 09:56:51;;;;;;;8.05;3.55;;;;;;;19.89;33.07;98667.13;4952076;29;20235;-66
2022/04/15 09:59:21;;;;;;;5.50;3.17;;;;;;;20.12;33.96;98670.88;4944369;29;20185;-66
2022/04/15 10:01:49;;;;;;;11.75;3.05;;;;;;;20.27;33.91;98672.75;4941646;29;20240;-67
2022/04/15 10:04:15;;;;;;;4.97;3.20;;;;;;;20.42;33.68;98663.28;4944950;28;20323;-67
2022/04/15 10:06:42;;;;;;;5.18;3.05;;;;;;;20.58;33.43;98658.03;4951946;29;20320;-66
2022/04/15 10:09:13;;;;;;;3.75;2.88;;;;;;;20.71;33.08;98657.56;4951520;29;20271;-66
2022/04/15 10:11:41;;;;;;;4.65;2.90;;;;;;;20.90;32.34;98652.84;4951585;29;20192;-67
2022/04/15 10:14:08;;;;;;;3.28;2.75;;;;;;;20.95;32.65;98649.72;4934305;29;20180;-66
2022/04/15 10:16:35;;;;;;;426.40;75.90;;;;;;;20.77;33.70;98641.13;4951436;29;20188;-67
2022/04/15 10:19:01;;;;;;;7.90;3.60;;;;;;;20.65;33.69;98643.28;4950973;29;20180;-65
2022/04/15 10:21:30;;;;;;;693.97;125.80;;;;;;;20.79;33.60;98645.25;4940230;29;20348;-66
2022/04/15 10:23:56;;;;;;;14.05;5.22;;;;;;;21.01;33.29;98633.28;4941683;29;20215;-66
2022/04/15 10:26:23;;;;;;;7.72;3.50;;;;;;;21.16;33.22;98629.00;4948481;29;20189;-66
2022/04/15 10:28:49;;;;;;;3.40;3.10;;;;;;;21.38;32.85;98628.34;4951690;29;20188;-66
2022/04/15 10:31:17;;;;;;;5.95;3.00;;;;;;;21.57;32.93;98623.50;4951119;29;21032;-67
2022/04/15 10:33:49;;;;;;;5.82;2.80;;;;;;;21.76;32.44;98611.78;4951302;29;20188;-66
2022/04/15 10:36:16;;;;;;;5.47;3.05;;;;;;;21.72;32.84;98615.75;4950719;28;20267;-66
2022/04/15 10:39:03;;;;;;;5.13;2.97;;;;;;;21.92;32.61;98614.38;4951228;29;20185;-67
2022/04/15 10:41:40;;;;;;;5.65;2.80;;;;;;;22.00;32.72;98601.97;4943695;29;20184;-66
2022/04/15 10:44:06;;;;;;;6.95;3.13;;;;;;;22.31;32.36;98604.63;4940854;29;20196;-66
2022/04/15 10:46:36;;;;;;;3.60;3.10;;;;;;;22.50;32.19;98605.00;4944997;29;20306;-66
2022/04/15 10:49:18;;;;;;;5.03;2.92;;;;;;;22.76;31.29;98602.03;4951089;29;20671;-66
2022/04/15 10:51:44;;;;;;;4.20;3.10;;;;;;;23.04;31.34;98600.47;4950830;29;20654;-66
2022/04/15 10:54:29;;;;;;;3.95;2.85;;;;;;;23.32;30.80;98598.94;4951081;29;20272;-66
2022/04/15 10:56:59;;;;;;;6.65;3.28;;;;;;;23.57;30.83;98593.22;4950623;29;20187;-66
2022/04/15 11:02:21;;;;;;;7.45;3.33;;;;;;;23.93;30.48;98586.22;4944077;29;20199;-67
2022/04/15 11:04:51;;;;;;;3.70;2.70;;;;;;;23.67;31.16;98585.00;4940035;28;20337;-66
2022/04/15 11:07:41;;;;;;;6.70;2.70;;;;;;;23.53;30.93;98575.28;4943301;29;20726;-66
2022/04/15 11:10:16;;;;;;;3.63;3.22;;;;;;;23.63;31.09;98570.53;4950592;29;20177;-67
2022/04/15 11:12:45;;;;;;;4.65;3.35;;;;;;;23.77;31.02;98562.59;4950928;29;20290;-66
2022/04/15 11:15:11;;;;;;;4.00;2.70;;;;;;;23.73;31.82;98570.06;4922517;29;20570;-66
2022/04/15 11:17:39;;;;;;;3.47;3.17;;;;;;;23.73;31.75;98569.25;4950510;29;20203;-67
2022/04/15 11:20:08;;;;;;;5.85;3.40;;;;;;;23.94;31.95;98571.19;4950730;29;20195;-66
2022/04/15 11:22:38;;;;;;;6.30;3.22;;;;;;;23.63;32.26;98562.59;4947632;29;20184;-66
2022/04/15 11:25:09;;;;;;;10.18;2.95;;;;;;;23.74;31.75;98555.84;4939495;29;20192;-66
2022/04/15 11:27:40;;;;;;;3.60;3.20;;;;;;;23.94;31.65;98557.97;4941339;29;20547;-66
2022/04/15 11:30:15;;;;;;;3.75;3.38;;;;;;;24.08;31.84;98553.44;4949349;29;20220;-66
2022/04/15 11:32:49;;;;;;;4.25;2.65;;;;;;;24.13;32.11;98548.41;4950440;29;20196;-67
2022/04/15 11:35:30;;;;;;;3.85;3.10;;;;;;;24.35;31.63;98544.78;4950553;29;20203;-66